createdAt,value
2019-03-25T00:01:27.707Z,9.60
2019-03-25T00:03:58.173Z,9.60
2019-03-25T00:06:28.683Z,9.50
2019-03-25T00:09:05.280Z,9.40
2019-03-25T00:11:32.651Z,9.30
2019-03-25T00:14:03.206Z,9.30
2019-03-25T00:16:34.991Z,9.30
2019-03-25T00:19:05.565Z,9.30
2019-03-25T00:21:36.031Z,9.20
2019-03-25T00:24:06.591Z,9.20
2019-03-25T00:26:37.051Z,9.10
2019-03-25T00:29:07.612Z,9.10
2019-03-25T00:31:38.075Z,9.10
2019-03-25T00:34:08.558Z,9.00
2019-03-25T00:36:39.022Z,9.00
2019-03-25T00:39:10.092Z,9.00
2019-03-25T00:41:40.575Z,9.00
2019-03-25T00:44:11.049Z,8.90
2019-03-25T00:46:41.547Z,8.90
2019-03-25T00:49:12.019Z,8.80
2019-03-25T00:51:42.582Z,8.80
2019-03-25T00:54:13.087Z,8.80
2019-03-25T00:56:43.537Z,8.90
2019-03-25T00:59:14.031Z,8.80
2019-03-25T01:01:47.337Z,8.70
2019-03-25T01:04:17.824Z,8.60
2019-03-25T01:06:49.145Z,8.60
2019-03-25T01:09:19.629Z,8.40
2019-03-25T01:11:50.156Z,8.40
2019-03-25T01:14:20.657Z,8.30
2019-03-25T01:16:51.114Z,8.20
2019-03-25T01:19:21.603Z,8.10
2019-03-25T01:21:52.058Z,8.10
2019-03-25T01:24:23.408Z,8.20
2019-03-25T01:26:53.983Z,8.10
2019-03-25T01:29:24.459Z,8.10
2019-03-25T01:31:54.931Z,8.00
2019-03-25T01:34:26.118Z,8.00
2019-03-25T01:36:57.547Z,7.90
2019-03-25T01:39:28.029Z,7.90
2019-03-25T01:41:58.487Z,7.90
2019-03-25T01:44:28.997Z,7.80
2019-03-25T01:46:59.477Z,7.80
2019-03-25T01:49:29.946Z,7.80
2019-03-25T01:52:00.429Z,7.70
2019-03-25T01:54:30.932Z,7.70
2019-03-25T01:57:01.431Z,7.70
2019-03-25T01:59:31.888Z,7.70
2019-03-25T02:02:02.386Z,7.70
2019-03-25T02:04:32.844Z,7.70
2019-03-25T02:07:04.271Z,7.70
2019-03-25T02:09:36.262Z,7.80
2019-03-25T02:12:06.774Z,7.70
2019-03-25T02:14:37.234Z,7.70
2019-03-25T02:17:08.288Z,7.60
2019-03-25T02:19:38.752Z,7.50
2019-03-25T02:22:09.242Z,7.60
2019-03-25T02:24:39.693Z,7.90
2019-03-25T02:27:10.196Z,8.20
2019-03-25T02:29:42.168Z,8.40
2019-03-25T02:32:12.680Z,8.60
2019-03-25T02:34:43.178Z,8.70
2019-03-25T02:37:13.659Z,8.80
2019-03-25T02:39:44.145Z,8.80
2019-03-25T02:42:16.166Z,8.90
2019-03-25T02:44:46.708Z,8.90
2019-03-25T02:47:17.193Z,8.80
2019-03-25T02:49:47.656Z,8.80
2019-03-25T02:52:18.142Z,8.60
2019-03-25T02:54:48.641Z,8.50
2019-03-25T02:57:19.099Z,8.30
2019-03-25T02:59:49.568Z,8.20
2019-03-25T03:02:20.036Z,8.10
2019-03-25T03:04:50.525Z,8.00
2019-03-25T03:07:21.587Z,7.90
2019-03-25T03:09:52.062Z,7.80
2019-03-25T03:12:22.523Z,7.70
2019-03-25T03:14:53.015Z,7.70
2019-03-25T03:17:23.951Z,7.70
2019-03-25T03:19:55.358Z,7.60
2019-03-25T03:22:25.996Z,7.50
2019-03-25T03:24:58.134Z,7.50
2019-03-25T03:27:31.360Z,7.40
2019-03-25T03:30:01.877Z,7.40
2019-03-25T03:32:32.336Z,7.40
2019-03-25T03:35:02.828Z,7.30
2019-03-25T03:37:33.310Z,7.30
2019-03-25T03:40:05.110Z,7.30
2019-03-25T03:42:35.671Z,7.20
2019-03-25T03:45:07.639Z,7.00
2019-03-25T03:47:38.142Z,6.90
2019-03-25T03:50:08.734Z,6.90
2019-03-25T03:52:40.059Z,6.90
2019-03-25T03:55:10.590Z,6.80
2019-03-25T03:57:41.244Z,6.80
2019-03-25T04:00:16.421Z,6.70
2019-03-25T04:02:46.983Z,6.70
2019-03-25T04:05:17.446Z,6.70
2019-03-25T04:07:47.929Z,6.70
2019-03-25T04:10:18.385Z,6.80
2019-03-25T04:12:48.939Z,6.80
2019-03-25T04:15:31.218Z,6.80
2019-03-25T04:18:02.209Z,6.70
2019-03-25T04:20:32.755Z,6.70
2019-03-25T04:23:03.243Z,6.80
2019-03-25T04:25:33.706Z,6.80
2019-03-25T04:28:04.196Z,6.90
2019-03-25T04:30:34.726Z,6.90
2019-03-25T04:33:05.212Z,6.90
2019-03-25T04:35:35.670Z,6.90
2019-03-25T04:38:06.162Z,6.90
2019-03-25T04:40:36.966Z,6.90
2019-03-25T04:43:07.457Z,6.90
2019-03-25T04:45:37.911Z,6.90
2019-03-25T04:48:08.474Z,6.90
2019-03-25T04:50:38.965Z,6.90
2019-03-25T04:53:09.430Z,6.90
2019-03-25T04:55:39.921Z,7.00
2019-03-25T04:58:10.407Z,7.00
2019-03-25T05:00:40.979Z,7.10
2019-03-25T05:03:11.438Z,7.10
2019-03-25T05:05:41.953Z,7.10
2019-03-25T05:08:12.416Z,7.10
2019-03-25T05:10:43.607Z,7.10
2019-03-25T05:13:14.061Z,7.10
2019-03-25T05:15:44.926Z,7.10
2019-03-25T05:18:15.727Z,7.10
2019-03-25T05:20:46.208Z,7.10
2019-03-25T05:23:16.709Z,7.20
2019-03-25T05:25:47.174Z,7.10
2019-03-25T05:28:17.677Z,7.10
2019-03-25T05:30:48.180Z,7.10
2019-03-25T05:33:18.636Z,7.10
2019-03-25T05:35:49.134Z,7.10
2019-03-25T05:38:19.634Z,7.10
2019-03-25T05:40:51.041Z,7.10
2019-03-25T05:43:21.500Z,7.10
2019-03-25T05:45:52.006Z,7.10
2019-03-25T05:48:22.475Z,7.10
2019-03-25T05:50:54.649Z,7.10
2019-03-25T05:53:25.109Z,7.10
2019-03-25T05:55:55.576Z,7.30
2019-03-25T05:58:26.090Z,7.40
2019-03-25T06:00:56.540Z,7.50
2019-03-25T06:03:27.049Z,7.60
2019-03-25T06:05:57.512Z,7.60
2019-03-25T06:08:28.071Z,7.60
2019-03-25T06:10:58.568Z,7.60
2019-03-25T06:13:30.032Z,7.70
2019-03-25T06:16:00.511Z,7.70
2019-03-25T06:18:30.991Z,7.80
2019-03-25T06:21:01.502Z,8.00
2019-03-25T06:23:33.281Z,8.10
2019-03-25T06:26:03.766Z,8.30
2019-03-25T06:28:34.246Z,8.50
2019-03-25T06:31:05.681Z,8.70
2019-03-25T06:33:36.176Z,8.90
2019-03-25T06:36:06.705Z,9.10
2019-03-25T06:38:39.199Z,9.30
2019-03-25T06:41:11.768Z,9.50
2019-03-25T06:43:42.340Z,9.70
2019-03-25T06:46:14.390Z,9.80
2019-03-25T06:48:44.869Z,10.00
2019-03-25T06:51:15.368Z,10.10
2019-03-25T06:53:45.837Z,10.20
2019-03-25T06:56:16.378Z,10.20
2019-03-25T06:58:46.893Z,10.20
2019-03-25T07:01:17.366Z,10.20
2019-03-25T07:03:47.872Z,10.20
2019-03-25T07:06:18.378Z,10.30
2019-03-25T07:08:48.845Z,10.40
2019-03-25T07:11:19.366Z,10.40
2019-03-25T07:13:49.912Z,10.30
2019-03-25T07:16:20.412Z,10.30
2019-03-25T07:18:50.889Z,10.20
2019-03-25T07:21:21.411Z,10.20
2019-03-25T07:23:51.921Z,10.10
2019-03-25T07:26:22.489Z,10.10
2019-03-25T07:28:52.961Z,10.10
2019-03-25T07:31:23.467Z,10.00
2019-03-25T07:33:53.951Z,10.10
2019-03-25T07:36:24.521Z,10.20
2019-03-25T07:38:55.093Z,10.20
2019-03-25T07:41:25.583Z,10.20
2019-03-25T07:43:56.095Z,10.20
2019-03-25T07:46:26.560Z,10.20
2019-03-25T07:48:57.073Z,10.20
2019-03-25T07:51:27.641Z,10.20
2019-03-25T07:53:58.212Z,10.10
2019-03-25T07:56:28.732Z,10.20
2019-03-25T07:58:59.261Z,10.20
2019-03-25T08:01:29.753Z,10.30
2019-03-25T08:04:00.253Z,10.40
2019-03-25T08:06:32.317Z,10.30
2019-03-25T08:09:04.065Z,10.30
2019-03-25T08:11:36.296Z,10.40
2019-03-25T08:14:06.782Z,10.60
2019-03-25T08:16:37.251Z,10.80
2019-03-25T08:19:07.850Z,10.80
2019-03-25T08:21:40.037Z,11.00
2019-03-25T08:24:10.650Z,11.10
2019-03-25T08:26:42.900Z,11.20
2019-03-25T08:29:15.678Z,11.20
2019-03-25T08:31:46.721Z,11.00
2019-03-25T08:34:19.110Z,10.90
2019-03-25T08:36:49.605Z,10.80
2019-03-25T08:39:21.641Z,10.80
2019-03-25T08:41:52.878Z,10.90
2019-03-25T08:44:23.395Z,11.30
2019-03-25T08:46:53.872Z,11.50
2019-03-25T08:49:24.379Z,11.70
2019-03-25T08:51:58.787Z,11.90
2019-03-25T08:54:29.250Z,12.00
2019-03-25T08:56:59.759Z,12.10
2019-03-25T08:59:30.257Z,12.20
2019-03-25T09:02:00.727Z,11.80
2019-03-25T09:04:34.447Z,11.70
2019-03-25T09:07:04.917Z,11.90
2019-03-25T09:09:35.409Z,12.10
2019-03-25T09:12:05.948Z,12.20
2019-03-25T09:14:36.470Z,12.20
2019-03-25T09:17:07.374Z,12.00
2019-03-25T09:19:37.880Z,12.00
2019-03-25T09:22:09.035Z,12.00
2019-03-25T09:24:39.563Z,12.00
2019-03-25T09:27:10.046Z,11.90
2019-03-25T09:29:40.665Z,12.10
2019-03-25T09:32:11.228Z,11.90
2019-03-25T09:34:41.701Z,12.10
2019-03-25T09:37:12.360Z,12.20
2019-03-25T09:39:42.852Z,12.40
2019-03-25T09:42:15.922Z,12.40
2019-03-25T09:44:46.454Z,12.50
2019-03-25T09:47:17.016Z,12.80
2019-03-25T09:49:47.480Z,12.70
2019-03-25T09:52:19.537Z,12.70
2019-03-25T09:54:50.081Z,12.70
2019-03-25T09:57:20.573Z,12.50
2019-03-25T09:59:51.037Z,12.50
2019-03-25T10:02:21.522Z,12.40
2019-03-25T10:04:51.991Z,12.20
2019-03-25T10:07:24.194Z,12.10
2019-03-25T10:09:54.682Z,12.20
2019-03-25T10:12:25.177Z,12.30
2019-03-25T10:14:55.638Z,12.20
2019-03-25T10:17:26.131Z,12.20
2019-03-25T10:19:56.601Z,12.10
2019-03-25T10:22:27.097Z,12.20
2019-03-25T10:24:57.570Z,12.40
2019-03-25T10:27:28.062Z,12.30
2019-03-25T10:29:58.535Z,12.20
2019-03-25T10:32:29.029Z,12.10
2019-03-25T10:34:59.516Z,12.10
2019-03-25T10:37:30.066Z,12.40
2019-03-25T10:40:00.641Z,12.50
2019-03-25T10:42:31.301Z,12.50
2019-03-25T10:45:01.876Z,12.70
2019-03-25T10:47:32.841Z,13.10
2019-03-25T10:50:04.173Z,13.40
2019-03-25T10:52:34.704Z,13.50
2019-03-25T10:55:09.096Z,13.10
2019-03-25T10:57:39.562Z,13.10
2019-03-25T11:00:12.049Z,13.00
2019-03-25T11:02:42.526Z,13.10
2019-03-25T11:05:13.243Z,13.20
2019-03-25T11:07:43.742Z,13.50
2019-03-25T11:10:14.816Z,13.70
2019-03-25T11:12:45.307Z,13.70
2019-03-25T11:15:16.087Z,13.60
2019-03-25T11:17:46.649Z,13.60
2019-03-25T11:20:17.351Z,13.50
2019-03-25T11:22:47.852Z,13.90
2019-03-25T11:25:18.566Z,14.40
2019-03-25T11:27:54.368Z,14.70
2019-03-25T11:30:44.110Z,15.10
2019-03-25T11:33:14.611Z,15.20
2019-03-25T11:35:45.081Z,14.50
2019-03-25T11:38:15.650Z,14.80
2019-03-25T11:40:46.152Z,15.20
2019-03-25T11:43:16.710Z,15.50
2019-03-25T11:45:47.251Z,16.00
2019-03-25T11:48:17.912Z,16.00
2019-03-25T11:50:48.487Z,16.20
2019-03-25T11:53:19.217Z,15.80
2019-03-25T11:55:49.737Z,15.30
2019-03-25T11:58:20.360Z,14.80
2019-03-25T12:00:50.833Z,14.60
2019-03-25T12:03:21.903Z,14.10
2019-03-25T12:05:52.430Z,13.70
2019-03-25T12:08:22.940Z,13.50
2019-03-25T12:10:53.472Z,13.60
2019-03-25T12:13:23.967Z,13.60
2019-03-25T12:15:54.470Z,13.50
2019-03-25T12:18:24.939Z,13.70
2019-03-25T12:20:55.439Z,13.70
2019-03-25T12:23:26.735Z,13.50
2019-03-25T12:25:57.543Z,13.30
2019-03-25T12:28:28.008Z,13.20
2019-03-25T12:30:58.521Z,13.10
2019-03-25T12:33:28.994Z,12.80
2019-03-25T12:35:59.476Z,12.80
2019-03-25T12:38:29.946Z,13.00
2019-03-25T12:41:00.512Z,13.40
2019-03-25T12:43:31.045Z,13.40
2019-03-25T12:46:01.668Z,13.90
2019-03-25T12:48:32.849Z,14.00
2019-03-25T12:51:03.347Z,13.70
2019-03-25T12:53:33.928Z,13.50
2019-03-25T12:56:04.377Z,13.30
2019-03-25T12:58:34.872Z,13.20
2019-03-25T13:01:05.401Z,13.30
2019-03-25T13:03:35.897Z,13.60
2019-03-25T13:06:09.165Z,13.60
2019-03-25T13:08:41.269Z,13.80
2019-03-25T13:11:11.735Z,13.70
2019-03-25T13:13:42.242Z,13.70
2019-03-25T13:16:12.718Z,13.90
2019-03-25T13:18:43.685Z,14.80
2019-03-25T13:21:14.333Z,14.80
2019-03-25T13:23:45.569Z,15.00
2019-03-25T13:26:16.065Z,15.00
2019-03-25T13:28:46.531Z,15.00
2019-03-25T13:31:17.029Z,14.30
2019-03-25T13:33:47.602Z,13.60
2019-03-25T13:36:18.139Z,13.30
2019-03-25T13:38:48.640Z,12.90
2019-03-25T13:41:19.135Z,12.80
2019-03-25T13:43:51.280Z,12.50
2019-03-25T13:46:23.326Z,12.10
2019-03-25T13:48:55.269Z,11.20
2019-03-25T13:51:25.739Z,10.50
2019-03-25T13:53:56.238Z,10.10
2019-03-25T13:56:26.702Z,9.90
2019-03-25T13:58:57.189Z,9.60
2019-03-25T14:01:27.675Z,9.50
2019-03-25T14:03:59.048Z,9.40
2019-03-25T14:06:29.541Z,9.30
2019-03-25T14:09:00.004Z,9.40
2019-03-25T14:11:30.563Z,9.60
2019-03-25T14:14:02.131Z,9.60
2019-03-25T14:16:32.641Z,9.70
2019-03-25T14:19:03.103Z,9.90
2019-03-25T14:21:33.609Z,10.00
2019-03-25T14:24:04.314Z,10.20
2019-03-25T14:26:35.178Z,10.30
2019-03-25T14:29:05.628Z,10.50
2019-03-25T14:31:36.145Z,10.70
2019-03-25T14:34:06.617Z,10.80
2019-03-25T14:36:37.122Z,10.80
2019-03-25T14:39:08.453Z,10.60
2019-03-25T14:41:39.004Z,10.20
2019-03-25T14:44:09.468Z,9.80
2019-03-25T14:46:39.953Z,9.60
2019-03-25T14:49:10.713Z,9.60
2019-03-25T14:51:41.353Z,9.30
2019-03-25T14:54:11.814Z,9.30
2019-03-25T14:56:42.296Z,9.10
2019-03-25T14:59:12.783Z,9.10
2019-03-25T15:01:43.240Z,9.10
2019-03-25T15:04:13.745Z,9.00
2019-03-25T15:06:45.933Z,9.00
2019-03-25T15:09:16.408Z,9.10
2019-03-25T15:11:47.006Z,9.10
2019-03-25T15:14:17.657Z,9.00
2019-03-25T15:16:48.113Z,9.00
2019-03-25T15:19:18.617Z,8.20
2019-03-25T15:21:50.306Z,9.40
2019-03-25T15:24:21.517Z,8.90
2019-03-25T15:26:52.125Z,8.80
2019-03-25T15:29:23.899Z,8.90
2019-03-25T15:31:54.388Z,8.90
2019-03-25T15:34:24.851Z,8.80
2019-03-25T15:36:55.342Z,8.70
2019-03-25T15:39:25.854Z,8.60
2019-03-25T15:41:56.337Z,8.60
2019-03-25T15:44:26.790Z,8.60
2019-03-25T15:46:57.301Z,8.60
2019-03-25T15:49:27.756Z,8.70
2019-03-25T15:51:58.228Z,8.80
2019-03-25T15:54:28.679Z,8.90
2019-03-25T15:56:59.185Z,9.00
2019-03-25T15:59:29.683Z,9.00
2019-03-25T16:02:00.213Z,9.10
2019-03-25T16:04:32.365Z,9.10
2019-03-25T16:07:03.291Z,9.10
2019-03-25T16:09:33.863Z,9.10
2019-03-25T16:12:05.061Z,9.10
2019-03-25T16:14:35.688Z,9.10
2019-03-25T16:17:06.240Z,9.10
2019-03-25T16:19:36.705Z,9.20
2019-03-25T16:22:07.339Z,9.20
2019-03-25T16:24:37.799Z,9.20
2019-03-25T16:27:08.359Z,9.30
2019-03-25T16:29:39.912Z,9.30
2019-03-25T16:32:10.403Z,9.20
2019-03-25T16:34:40.861Z,9.00
2019-03-25T16:37:11.394Z,8.80
2019-03-25T16:39:41.902Z,8.50
2019-03-25T16:42:12.388Z,8.40
2019-03-25T16:44:42.847Z,8.40
2019-03-25T16:47:13.324Z,8.40
2019-03-25T16:49:43.808Z,8.40
2019-03-25T16:52:16.229Z,8.30
2019-03-25T16:54:46.482Z,8.10
2019-03-25T16:57:16.904Z,8.10
2019-03-25T16:59:47.393Z,8.10
2019-03-25T17:02:17.906Z,8.10
2019-03-25T17:04:48.398Z,8.00
2019-03-25T17:07:18.919Z,8.00
2019-03-25T17:09:49.423Z,7.90
2019-03-25T17:12:20.449Z,7.80
2019-03-25T17:14:50.959Z,7.80
2019-03-25T17:17:22.877Z,7.80
2019-03-25T17:19:53.365Z,7.70
2019-03-25T17:22:23.812Z,7.70
2019-03-25T17:24:54.363Z,7.60
2019-03-25T17:27:24.804Z,7.50
2019-03-25T17:29:56.619Z,7.50
2019-03-25T17:32:27.081Z,7.40
2019-03-25T17:35:01.906Z,7.40
2019-03-25T17:37:32.378Z,7.40
2019-03-25T17:40:02.862Z,7.40
2019-03-25T17:42:34.646Z,7.40
2019-03-25T17:45:10.209Z,7.50
2019-03-25T17:47:40.704Z,7.50
2019-03-25T17:50:11.604Z,7.60
2019-03-25T17:52:43.534Z,7.60
2019-03-25T17:55:14.291Z,7.50
2019-03-25T17:57:44.744Z,7.50
2019-03-25T18:00:17.571Z,7.60
2019-03-25T18:02:48.714Z,7.60
2019-03-25T18:05:19.207Z,7.60
2019-03-25T18:07:49.719Z,7.60
2019-03-25T18:10:20.219Z,7.60
2019-03-25T18:12:50.664Z,7.60
2019-03-25T18:15:21.172Z,7.50
2019-03-25T18:17:51.664Z,7.50
2019-03-25T18:20:22.213Z,7.50
2019-03-25T18:22:52.713Z,7.60
2019-03-25T18:25:23.156Z,7.60
2019-03-25T18:27:53.641Z,7.60
2019-03-25T18:30:33.400Z,7.60
2019-03-25T18:33:03.884Z,7.60
2019-03-25T18:35:34.896Z,7.50
2019-03-25T18:38:05.451Z,7.50
2019-03-25T18:40:35.901Z,7.50
2019-03-25T18:43:06.472Z,7.50
2019-03-25T18:45:36.960Z,7.40
2019-03-25T18:48:09.268Z,7.30
2019-03-25T18:50:39.860Z,7.20
2019-03-25T18:53:10.356Z,7.20
2019-03-25T18:55:40.886Z,7.20
2019-03-25T18:58:11.370Z,7.30
2019-03-25T19:00:41.914Z,7.30
2019-03-25T19:03:12.397Z,7.30
2019-03-25T19:05:42.885Z,7.20
2019-03-25T19:08:14.483Z,7.20
2019-03-25T19:10:45.013Z,7.10
2019-03-25T19:13:15.508Z,7.10
2019-03-25T19:15:46.002Z,7.10
2019-03-25T19:18:16.565Z,7.10
2019-03-25T19:20:47.077Z,7.10
2019-03-25T19:23:18.687Z,7.10
2019-03-25T19:25:49.190Z,7.00
2019-03-25T19:28:19.676Z,6.90
2019-03-25T19:30:50.225Z,6.90
2019-03-25T19:33:20.697Z,6.90
2019-03-25T19:35:51.248Z,6.90
2019-03-25T19:38:21.786Z,6.80
2019-03-25T19:40:52.295Z,6.80
2019-03-25T19:43:22.797Z,6.70
2019-03-25T19:45:53.260Z,6.70
2019-03-25T19:48:26.670Z,6.70
2019-03-25T19:50:57.107Z,6.70
2019-03-25T19:53:27.612Z,6.70
2019-03-25T19:55:58.048Z,6.70
2019-03-25T19:58:28.602Z,6.60
2019-03-25T20:00:59.094Z,6.70
2019-03-25T20:03:29.689Z,6.80
2019-03-25T20:06:00.151Z,6.80
2019-03-25T20:08:30.805Z,6.80
2019-03-25T20:11:01.283Z,6.70
2019-03-25T20:13:31.782Z,6.80
2019-03-25T20:16:02.303Z,6.80
2019-03-25T20:18:32.827Z,6.80
2019-03-25T20:21:03.290Z,6.80
2019-03-25T20:23:33.778Z,6.70
2019-03-25T20:26:04.261Z,6.70
2019-03-25T20:28:34.797Z,6.70
2019-03-25T20:31:05.350Z,6.70
2019-03-25T20:33:35.817Z,6.70
2019-03-25T20:36:06.391Z,6.70
2019-03-25T20:38:36.871Z,6.60
2019-03-25T20:41:07.465Z,6.70
2019-03-25T20:43:37.933Z,6.70
2019-03-25T20:46:08.463Z,6.60
2019-03-25T20:48:38.920Z,6.60
2019-03-25T20:51:09.454Z,6.50
2019-03-25T20:53:39.939Z,6.50
2019-03-25T20:56:10.427Z,6.50
2019-03-25T20:58:41.173Z,6.50
2019-03-25T21:01:12.254Z,6.60
2019-03-25T21:03:44.298Z,6.60
2019-03-25T21:06:14.798Z,6.50
2019-03-25T21:08:45.271Z,6.40
2019-03-25T21:11:16.164Z,6.40
2019-03-25T21:13:46.647Z,6.40
2019-03-25T21:16:17.153Z,6.40
2019-03-25T21:18:47.691Z,6.40
2019-03-25T21:21:18.180Z,6.40
2019-03-25T21:23:48.672Z,6.40
2019-03-25T21:26:19.202Z,6.40
2019-03-25T21:28:49.737Z,6.40
2019-03-25T21:31:20.282Z,6.40
2019-03-25T21:33:50.763Z,6.40
2019-03-25T21:36:21.251Z,6.40
2019-03-25T21:38:51.765Z,6.40
2019-03-25T21:41:22.343Z,6.40
2019-03-25T21:43:55.947Z,6.40
2019-03-25T21:46:26.454Z,6.30
2019-03-25T21:48:57.033Z,6.30
2019-03-25T21:51:27.604Z,6.30
2019-03-25T21:53:58.124Z,6.20
2019-03-25T21:56:28.580Z,6.20
2019-03-25T21:59:00.433Z,6.20
2019-03-25T22:01:31.495Z,6.10
2019-03-25T22:04:02.003Z,6.10
2019-03-25T22:06:32.532Z,6.00
2019-03-25T22:09:03.019Z,6.00
2019-03-25T22:11:33.497Z,6.00
2019-03-25T22:14:04.092Z,6.00
2019-03-25T22:16:34.645Z,5.90
2019-03-25T22:19:05.205Z,5.80
2019-03-25T22:21:37.270Z,5.70
2019-03-25T22:24:07.771Z,5.80
2019-03-25T22:26:38.215Z,5.70
2019-03-25T22:29:08.695Z,5.80
2019-03-25T22:31:39.154Z,5.70
2019-03-25T22:34:09.634Z,5.70
2019-03-25T22:36:40.138Z,5.80
2019-03-25T22:39:10.586Z,5.70
2019-03-25T22:41:41.071Z,5.80
2019-03-25T22:44:11.557Z,5.70
2019-03-25T22:46:42.051Z,5.70
2019-03-25T22:49:12.492Z,5.60
2019-03-25T22:51:42.974Z,5.60
2019-03-25T22:54:13.441Z,5.60
2019-03-25T22:56:43.926Z,5.60
2019-03-25T22:59:14.380Z,5.60
2019-03-25T23:01:44.882Z,5.60
2019-03-25T23:04:15.504Z,5.60
2019-03-25T23:06:45.986Z,5.50
2019-03-25T23:09:16.437Z,5.50
2019-03-25T23:11:46.915Z,5.50
2019-03-25T23:14:17.390Z,5.50
2019-03-25T23:16:47.910Z,5.60
2019-03-25T23:19:18.469Z,5.50
2019-03-25T23:21:48.939Z,5.60
2019-03-25T23:24:19.445Z,5.60
2019-03-25T23:26:49.920Z,5.70
2019-03-25T23:29:20.365Z,5.60
2019-03-25T23:31:50.846Z,5.60
2019-03-25T23:34:21.296Z,5.70
2019-03-25T23:36:51.777Z,5.70
2019-03-25T23:39:25.079Z,5.60
2019-03-25T23:41:54.412Z,5.60
2019-03-25T23:44:24.859Z,5.70
2019-03-25T23:46:55.346Z,5.60
2019-03-25T23:49:25.853Z,5.60
2019-03-25T23:51:56.347Z,5.50
2019-03-25T23:54:26.804Z,5.60
2019-03-25T23:56:57.277Z,5.60
2019-03-25T23:59:27.744Z,5.50
